sensor_id;sensor_type;location;lat;lon;timestamp;P1;durP1;ratioP1;P2;durP2;ratioP2
19645;SDS011;9971;52.446;13.452;2023-06-04T00:04:58;1.60;;;1.43;;
19645;SDS011;9971;52.446;13.452;2023-06-04T00:10:01;1.60;;;1.50;;
19645;SDS011;9971;52.446;13.452;2023-06-04T00:15:03;1.35;;;1.25;;
19645;SDS011;9971;52.446;13.452;2023-06-04T00:20:06;1.45;;;1.32;;
19645;SDS011;9971;52.446;13.452;2023-06-04T00:25:09;1.70;;;1.50;;
19645;SDS011;9971;52.446;13.452;2023-06-04T00:30:12;1.20;;;1.10;;
19645;SDS011;9971;52.446;13.452;2023-06-04T00:35:14;1.30;;;1.20;;
19645;SDS011;9971;52.446;13.452;2023-06-04T00:40:16;1.77;;;1.30;;
19645;SDS011;9971;52.446;13.452;2023-06-04T00:45:19;1.10;;;1.10;;
19645;SDS011;9971;52.446;13.452;2023-06-04T00:50:22;0.90;;;0.90;;
19645;SDS011;9971;52.446;13.452;2023-06-04T00:55:24;2.77;;;1.27;;
19645;SDS011;9971;52.446;13.452;2023-06-04T01:00:27;1.12;;;1.10;;
19645;SDS011;9971;52.446;13.452;2023-06-04T01:05:29;0.88;;;0.88;;
19645;SDS011;9971;52.446;13.452;2023-06-04T01:10:31;0.80;;;0.80;;
19645;SDS011;9971;52.446;13.452;2023-06-04T01:15:33;0.95;;;0.93;;
19645;SDS011;9971;52.446;13.452;2023-06-04T01:20:36;0.82;;;0.82;;
19645;SDS011;9971;52.446;13.452;2023-06-04T01:25:39;0.90;;;0.90;;
19645;SDS011;9971;52.446;13.452;2023-06-04T01:30:41;0.72;;;0.72;;
19645;SDS011;9971;52.446;13.452;2023-06-04T01:35:44;0.60;;;0.60;;
19645;SDS011;9971;52.446;13.452;2023-06-04T01:40:46;0.80;;;0.80;;
19645;SDS011;9971;52.446;13.452;2023-06-04T01:45:47;0.50;;;0.50;;
19645;SDS011;9971;52.446;13.452;2023-06-04T01:50:50;0.70;;;0.70;;
19645;SDS011;9971;52.446;13.452;2023-06-04T01:55:52;0.60;;;0.60;;
19645;SDS011;9971;52.446;13.452;2023-06-04T02:00:54;0.50;;;0.50;;
19645;SDS011;9971;52.446;13.452;2023-06-04T02:05:56;0.60;;;0.60;;
19645;SDS011;9971;52.446;13.452;2023-06-04T02:10:59;0.40;;;0.40;;
19645;SDS011;9971;52.446;13.452;2023-06-04T02:16:01;0.50;;;0.50;;
19645;SDS011;9971;52.446;13.452;2023-06-04T02:21:03;0.50;;;0.50;;
19645;SDS011;9971;52.446;13.452;2023-06-04T02:26:06;0.65;;;0.40;;
19645;SDS011;9971;52.446;13.452;2023-06-04T02:31:09;0.53;;;0.53;;
19645;SDS011;9971;52.446;13.452;2023-06-04T02:36:11;0.50;;;0.50;;
19645;SDS011;9971;52.446;13.452;2023-06-04T02:41:14;0.60;;;0.60;;
19645;SDS011;9971;52.446;13.452;2023-06-04T02:46:16;0.20;;;0.20;;
19645;SDS011;9971;52.446;13.452;2023-06-04T02:51:19;0.45;;;0.45;;
19645;SDS011;9971;52.446;13.452;2023-06-04T02:56:21;0.30;;;0.30;;
19645;SDS011;9971;52.446;13.452;2023-06-04T03:01:24;0.20;;;0.20;;
19645;SDS011;9971;52.446;13.452;2023-06-04T03:06:26;0.20;;;0.20;;
19645;SDS011;9971;52.446;13.452;2023-06-04T03:11:28;0.13;;;0.10;;
19645;SDS011;9971;52.446;13.452;2023-06-04T03:16:31;0.10;;;0.10;;
19645;SDS011;9971;52.446;13.452;2023-06-04T03:21:33;0.13;;;0.13;;
19645;SDS011;9971;52.446;13.452;2023-06-04T03:26:35;0.10;;;0.10;;
19645;SDS011;9971;52.446;13.452;2023-06-04T03:31:39;0.20;;;0.20;;
19645;SDS011;9971;52.446;13.452;2023-06-04T03:36:41;0.30;;;0.30;;
19645;SDS011;9971;52.446;13.452;2023-06-04T03:41:44;0.20;;;0.20;;
19645;SDS011;9971;52.446;13.452;2023-06-04T03:46:46;0.23;;;0.23;;
19645;SDS011;9971;52.446;13.452;2023-06-04T03:51:49;0.30;;;0.30;;
19645;SDS011;9971;52.446;13.452;2023-06-04T03:56:51;0.25;;;0.25;;
19645;SDS011;9971;52.446;13.452;2023-06-04T04:01:54;0.30;;;0.30;;
19645;SDS011;9971;52.446;13.452;2023-06-04T04:06:56;0.20;;;0.20;;
19645;SDS011;9971;52.446;13.452;2023-06-04T04:11:59;0.20;;;0.20;;
19645;SDS011;9971;52.446;13.452;2023-06-04T04:17:02;0.17;;;0.17;;
19645;SDS011;9971;52.446;13.452;2023-06-04T04:22:04;0.10;;;0.10;;
19645;SDS011;9971;52.446;13.452;2023-06-04T04:27:06;0.20;;;0.20;;
19645;SDS011;9971;52.446;13.452;2023-06-04T04:32:09;0.20;;;0.20;;
19645;SDS011;9971;52.446;13.452;2023-06-04T04:37:11;0.20;;;0.20;;
19645;SDS011;9971;52.446;13.452;2023-06-04T04:42:14;0.17;;;0.17;;
19645;SDS011;9971;52.446;13.452;2023-06-04T04:47:16;0.10;;;0.10;;
19645;SDS011;9971;52.446;13.452;2023-06-04T04:52:19;0.20;;;0.20;;
19645;SDS011;9971;52.446;13.452;2023-06-04T04:57:21;0.10;;;0.10;;
19645;SDS011;9971;52.446;13.452;2023-06-04T05:02:24;0.17;;;0.17;;
19645;SDS011;9971;52.446;13.452;2023-06-04T05:07:26;0.00;;;0.00;;
19645;SDS011;9971;52.446;13.452;2023-06-04T05:12:29;0.10;;;0.10;;
19645;SDS011;9971;52.446;13.452;2023-06-04T05:17:31;0.00;;;0.00;;
19645;SDS011;9971;52.446;13.452;2023-06-04T05:22:33;0.00;;;0.00;;
19645;SDS011;9971;52.446;13.452;2023-06-04T05:27:35;0.10;;;0.10;;
19645;SDS011;9971;52.446;13.452;2023-06-04T05:32:38;0.20;;;0.20;;
19645;SDS011;9971;52.446;13.452;2023-06-04T05:37:40;0.00;;;0.00;;
19645;SDS011;9971;52.446;13.452;2023-06-04T05:42:42;0.00;;;0.00;;
19645;SDS011;9971;52.446;13.452;2023-06-04T05:47:45;0.00;;;0.00;;
19645;SDS011;9971;52.446;13.452;2023-06-04T05:52:48;0.10;;;0.10;;
19645;SDS011;9971;52.446;13.452;2023-06-04T05:57:53;0.10;;;0.10;;
19645;SDS011;9971;52.446;13.452;2023-06-04T06:02:55;0.17;;;0.17;;
19645;SDS011;9971;52.446;13.452;2023-06-04T06:07:57;0.00;;;0.00;;
19645;SDS011;9971;52.446;13.452;2023-06-04T06:13:00;0.10;;;0.10;;
19645;SDS011;9971;52.446;13.452;2023-06-04T06:18:02;0.10;;;0.10;;
19645;SDS011;9971;52.446;13.452;2023-06-04T06:23:06;0.03;;;0.03;;
19645;SDS011;9971;52.446;13.452;2023-06-04T06:28:07;0.10;;;0.10;;
19645;SDS011;9971;52.446;13.452;2023-06-04T06:33:10;0.10;;;0.10;;
19645;SDS011;9971;52.446;13.452;2023-06-04T06:38:12;0.13;;;0.13;;
19645;SDS011;9971;52.446;13.452;2023-06-04T06:43:15;0.10;;;0.10;;
19645;SDS011;9971;52.446;13.452;2023-06-04T06:48:18;0.10;;;0.10;;
19645;SDS011;9971;52.446;13.452;2023-06-04T06:53:20;0.20;;;0.20;;
19645;SDS011;9971;52.446;13.452;2023-06-04T06:58:22;0.10;;;0.10;;
19645;SDS011;9971;52.446;13.452;2023-06-04T07:03:25;0.20;;;0.20;;
19645;SDS011;9971;52.446;13.452;2023-06-04T07:08:27;0.10;;;0.10;;
19645;SDS011;9971;52.446;13.452;2023-06-04T07:13:30;0.80;;;0.53;;
19645;SDS011;9971;52.446;13.452;2023-06-04T07:18:33;0.30;;;0.30;;
19645;SDS011;9971;52.446;13.452;2023-06-04T07:23:35;0.05;;;0.05;;
19645;SDS011;9971;52.446;13.452;2023-06-04T07:28:37;0.13;;;0.13;;
19645;SDS011;9971;52.446;13.452;2023-06-04T07:33:41;0.33;;;0.20;;
19645;SDS011;9971;52.446;13.452;2023-06-04T07:38:44;0.10;;;0.10;;
19645;SDS011;9971;52.446;13.452;2023-06-04T07:43:47;0.20;;;0.20;;
19645;SDS011;9971;52.446;13.452;2023-06-04T07:48:49;0.10;;;0.10;;
19645;SDS011;9971;52.446;13.452;2023-06-04T07:53:52;0.08;;;0.08;;
19645;SDS011;9971;52.446;13.452;2023-06-04T07:58:54;0.10;;;0.10;;
19645;SDS011;9971;52.446;13.452;2023-06-04T08:03:57;0.17;;;0.17;;
19645;SDS011;9971;52.446;13.452;2023-06-04T08:09:00;0.20;;;0.20;;
19645;SDS011;9971;52.446;13.452;2023-06-04T08:14:02;0.27;;;0.13;;
19645;SDS011;9971;52.446;13.452;2023-06-04T08:19:04;0.17;;;0.17;;
19645;SDS011;9971;52.446;13.452;2023-06-04T08:24:08;0.20;;;0.20;;
19645;SDS011;9971;52.446;13.452;2023-06-04T08:29:09;0.20;;;0.20;;
19645;SDS011;9971;52.446;13.452;2023-06-04T08:34:11;0.10;;;0.10;;
19645;SDS011;9971;52.446;13.452;2023-06-04T08:39:14;0.28;;;0.15;;
19645;SDS011;9971;52.446;13.452;2023-06-04T08:44:16;0.10;;;0.10;;
19645;SDS011;9971;52.446;13.452;2023-06-04T08:49:18;0.10;;;0.10;;
19645;SDS011;9971;52.446;13.452;2023-06-04T08:54:20;0.07;;;0.07;;
19645;SDS011;9971;52.446;13.452;2023-06-04T08:59:23;0.03;;;0.03;;
19645;SDS011;9971;52.446;13.452;2023-06-04T09:04:25;0.30;;;0.30;;
19645;SDS011;9971;52.446;13.452;2023-06-04T09:09:27;0.63;;;0.20;;
19645;SDS011;9971;52.446;13.452;2023-06-04T09:14:29;0.20;;;0.20;;
19645;SDS011;9971;52.446;13.452;2023-06-04T09:19:31;0.10;;;0.10;;
19645;SDS011;9971;52.446;13.452;2023-06-04T09:24:39;0.45;;;0.40;;
19645;SDS011;9971;52.446;13.452;2023-06-04T09:29:48;1.10;;;0.13;;
19645;SDS011;9971;52.446;13.452;2023-06-04T09:34:43;0.20;;;0.20;;
19645;SDS011;9971;52.446;13.452;2023-06-04T09:44:54;0.00;;;0.00;;
19645;SDS011;9971;52.446;13.452;2023-06-04T09:49:56;0.20;;;0.20;;
19645;SDS011;9971;52.446;13.452;2023-06-04T09:54:59;0.50;;;0.50;;
19645;SDS011;9971;52.446;13.452;2023-06-04T10:00:01;0.10;;;0.10;;
19645;SDS011;9971;52.446;13.452;2023-06-04T10:05:04;0.23;;;0.00;;
19645;SDS011;9971;52.446;13.452;2023-06-04T10:10:06;0.10;;;0.10;;
19645;SDS011;9971;52.446;13.452;2023-06-04T10:15:10;0.05;;;0.05;;
19645;SDS011;9971;52.446;13.452;2023-06-04T10:20:11;0.10;;;0.10;;
19645;SDS011;9971;52.446;13.452;2023-06-04T10:25:14;0.50;;;0.50;;
19645;SDS011;9971;52.446;13.452;2023-06-04T10:30:16;0.33;;;0.33;;
19645;SDS011;9971;52.446;13.452;2023-06-04T10:35:28;0.23;;;0.23;;
19645;SDS011;9971;52.446;13.452;2023-06-04T10:40:20;0.77;;;0.77;;
19645;SDS011;9971;52.446;13.452;2023-06-04T10:45:24;0.63;;;0.40;;
19645;SDS011;9971;52.446;13.452;2023-06-04T10:50:24;0.50;;;0.50;;
19645;SDS011;9971;52.446;13.452;2023-06-04T10:55:27;1.25;;;0.70;;
19645;SDS011;9971;52.446;13.452;2023-06-04T11:00:35;1.00;;;0.90;;
19645;SDS011;9971;52.446;13.452;2023-06-04T11:05:41;0.62;;;0.62;;
19645;SDS011;9971;52.446;13.452;2023-06-04T11:10:43;1.17;;;0.68;;
19645;SDS011;9971;52.446;13.452;2023-06-04T11:15:45;0.97;;;0.90;;
19645;SDS011;9971;52.446;13.452;2023-06-04T11:20:48;1.03;;;0.77;;
19645;SDS011;9971;52.446;13.452;2023-06-04T11:25:48;0.70;;;0.70;;
19645;SDS011;9971;52.446;13.452;2023-06-04T11:30:56;0.60;;;0.60;;
19645;SDS011;9971;52.446;13.452;2023-06-04T11:35:57;0.57;;;0.57;;
19645;SDS011;9971;52.446;13.452;2023-06-04T11:41:00;0.65;;;0.53;;
19645;SDS011;9971;52.446;13.452;2023-06-04T11:46:05;0.70;;;0.70;;
19645;SDS011;9971;52.446;13.452;2023-06-04T11:51:07;0.35;;;0.35;;
19645;SDS011;9971;52.446;13.452;2023-06-04T11:56:10;0.37;;;0.30;;
19645;SDS011;9971;52.446;13.452;2023-06-04T12:01:13;2.47;;;0.80;;
19645;SDS011;9971;52.446;13.452;2023-06-04T12:06:16;0.63;;;0.60;;
19645;SDS011;9971;52.446;13.452;2023-06-04T12:16:28;0.30;;;0.30;;
19645;SDS011;9971;52.446;13.452;2023-06-04T12:21:31;0.60;;;0.60;;
19645;SDS011;9971;52.446;13.452;2023-06-04T12:26:33;0.90;;;0.70;;
19645;SDS011;9971;52.446;13.452;2023-06-04T12:31:35;0.50;;;0.50;;
19645;SDS011;9971;52.446;13.452;2023-06-04T12:36:37;0.20;;;0.20;;
19645;SDS011;9971;52.446;13.452;2023-06-04T12:41:39;0.00;;;0.00;;
19645;SDS011;9971;52.446;13.452;2023-06-04T12:46:42;0.10;;;0.10;;
19645;SDS011;9971;52.446;13.452;2023-06-04T12:51:44;0.10;;;0.10;;
19645;SDS011;9971;52.446;13.452;2023-06-04T12:56:46;0.10;;;0.10;;
19645;SDS011;9971;52.446;13.452;2023-06-04T13:01:49;0.40;;;0.40;;
19645;SDS011;9971;52.446;13.452;2023-06-04T13:06:51;0.10;;;0.10;;
19645;SDS011;9971;52.446;13.452;2023-06-04T13:11:53;0.62;;;0.62;;
19645;SDS011;9971;52.446;13.452;2023-06-04T13:16:55;0.90;;;0.90;;
19645;SDS011;9971;52.446;13.452;2023-06-04T13:21:58;2.58;;;0.90;;
19645;SDS011;9971;52.446;13.452;2023-06-04T13:27:00;0.62;;;0.62;;
19645;SDS011;9971;52.446;13.452;2023-06-04T13:32:03;0.85;;;0.78;;
19645;SDS011;9971;52.446;13.452;2023-06-04T13:37:05;1.25;;;0.85;;
19645;SDS011;9971;52.446;13.452;2023-06-04T13:42:08;2.58;;;0.90;;
19645;SDS011;9971;52.446;13.452;2023-06-04T13:47:10;1.07;;;0.90;;
19645;SDS011;9971;52.446;13.452;2023-06-04T13:52:13;1.82;;;1.20;;
19645;SDS011;9971;52.446;13.452;2023-06-04T13:57:15;0.90;;;0.72;;
19645;SDS011;9971;52.446;13.452;2023-06-04T14:02:18;0.67;;;0.67;;
19645;SDS011;9971;52.446;13.452;2023-06-04T14:07:21;0.53;;;0.53;;
19645;SDS011;9971;52.446;13.452;2023-06-04T14:12:23;0.30;;;0.30;;
19645;SDS011;9971;52.446;13.452;2023-06-04T14:17:25;0.17;;;0.17;;
19645;SDS011;9971;52.446;13.452;2023-06-04T14:22:28;0.03;;;0.03;;
19645;SDS011;9971;52.446;13.452;2023-06-04T14:27:31;0.10;;;0.10;;
19645;SDS011;9971;52.446;13.452;2023-06-04T14:32:33;0.00;;;0.00;;
19645;SDS011;9971;52.446;13.452;2023-06-04T14:37:35;0.00;;;0.00;;
19645;SDS011;9971;52.446;13.452;2023-06-04T14:42:37;0.00;;;0.00;;
19645;SDS011;9971;52.446;13.452;2023-06-04T14:47:40;1.30;;;0.23;;
19645;SDS011;9971;52.446;13.452;2023-06-04T14:52:42;0.20;;;0.20;;
19645;SDS011;9971;52.446;13.452;2023-06-04T14:57:45;0.93;;;0.70;;
19645;SDS011;9971;52.446;13.452;2023-06-04T15:02:47;0.20;;;0.20;;
19645;SDS011;9971;52.446;13.452;2023-06-04T15:07:50;0.35;;;0.30;;
19645;SDS011;9971;52.446;13.452;2023-06-04T15:12:52;0.17;;;0.17;;
19645;SDS011;9971;52.446;13.452;2023-06-04T15:17:55;0.08;;;0.08;;
19645;SDS011;9971;52.446;13.452;2023-06-04T15:22:58;0.15;;;0.15;;
19645;SDS011;9971;52.446;13.452;2023-06-04T15:28:00;0.30;;;0.30;;
19645;SDS011;9971;52.446;13.452;2023-06-04T15:33:02;0.20;;;0.20;;
19645;SDS011;9971;52.446;13.452;2023-06-04T15:38:05;0.07;;;0.07;;
19645;SDS011;9971;52.446;13.452;2023-06-04T15:43:07;0.10;;;0.10;;
19645;SDS011;9971;52.446;13.452;2023-06-04T15:48:10;0.20;;;0.20;;
19645;SDS011;9971;52.446;13.452;2023-06-04T15:53:12;0.33;;;0.30;;
19645;SDS011;9971;52.446;13.452;2023-06-04T15:58:15;0.00;;;0.00;;
19645;SDS011;9971;52.446;13.452;2023-06-04T16:03:17;0.20;;;0.20;;
19645;SDS011;9971;52.446;13.452;2023-06-04T16:08:19;0.20;;;0.20;;
19645;SDS011;9971;52.446;13.452;2023-06-04T16:13:22;0.20;;;0.20;;
19645;SDS011;9971;52.446;13.452;2023-06-04T16:18:24;0.20;;;0.20;;
19645;SDS011;9971;52.446;13.452;2023-06-04T16:23:28;0.23;;;0.23;;
19645;SDS011;9971;52.446;13.452;2023-06-04T16:28:30;0.20;;;0.20;;
19645;SDS011;9971;52.446;13.452;2023-06-04T16:33:32;0.13;;;0.13;;
19645;SDS011;9971;52.446;13.452;2023-06-04T16:38:35;0.45;;;0.45;;
19645;SDS011;9971;52.446;13.452;2023-06-04T16:43:38;0.20;;;0.20;;
19645;SDS011;9971;52.446;13.452;2023-06-04T16:48:40;0.20;;;0.20;;
19645;SDS011;9971;52.446;13.452;2023-06-04T16:53:43;0.20;;;0.20;;
19645;SDS011;9971;52.446;13.452;2023-06-04T16:58:45;0.20;;;0.20;;
19645;SDS011;9971;52.446;13.452;2023-06-04T17:03:48;0.10;;;0.10;;
19645;SDS011;9971;52.446;13.452;2023-06-04T17:08:50;0.28;;;0.28;;
19645;SDS011;9971;52.446;13.452;2023-06-04T17:13:53;0.37;;;0.37;;
19645;SDS011;9971;52.446;13.452;2023-06-04T17:18:56;0.20;;;0.20;;
19645;SDS011;9971;52.446;13.452;2023-06-04T17:23:58;0.35;;;0.35;;
19645;SDS011;9971;52.446;13.452;2023-06-04T17:29:01;0.20;;;0.20;;
19645;SDS011;9971;52.446;13.452;2023-06-04T17:34:04;0.40;;;0.40;;
19645;SDS011;9971;52.446;13.452;2023-06-04T17:39:06;0.10;;;0.10;;
19645;SDS011;9971;52.446;13.452;2023-06-04T17:44:09;0.20;;;0.20;;
19645;SDS011;9971;52.446;13.452;2023-06-04T17:49:10;0.20;;;0.20;;
19645;SDS011;9971;52.446;13.452;2023-06-04T17:54:13;0.40;;;0.40;;
19645;SDS011;9971;52.446;13.452;2023-06-04T17:59:15;0.20;;;0.20;;
19645;SDS011;9971;52.446;13.452;2023-06-04T18:04:17;0.25;;;0.25;;
19645;SDS011;9971;52.446;13.452;2023-06-04T18:09:20;0.20;;;0.20;;
19645;SDS011;9971;52.446;13.452;2023-06-04T18:14:23;0.20;;;0.20;;
19645;SDS011;9971;52.446;13.452;2023-06-04T18:19:25;0.30;;;0.30;;
19645;SDS011;9971;52.446;13.452;2023-06-04T18:24:28;0.20;;;0.20;;
19645;SDS011;9971;52.446;13.452;2023-06-04T18:29:31;0.20;;;0.20;;
19645;SDS011;9971;52.446;13.452;2023-06-04T18:34:33;0.20;;;0.20;;
19645;SDS011;9971;52.446;13.452;2023-06-04T18:39:36;0.20;;;0.20;;
19645;SDS011;9971;52.446;13.452;2023-06-04T18:44:40;0.30;;;0.30;;
19645;SDS011;9971;52.446;13.452;2023-06-04T18:49:42;0.20;;;0.20;;
19645;SDS011;9971;52.446;13.452;2023-06-04T18:54:44;0.10;;;0.10;;
19645;SDS011;9971;52.446;13.452;2023-06-04T18:59:47;0.17;;;0.17;;
19645;SDS011;9971;52.446;13.452;2023-06-04T19:04:49;0.10;;;0.10;;
19645;SDS011;9971;52.446;13.452;2023-06-04T19:09:52;0.10;;;0.10;;
19645;SDS011;9971;52.446;13.452;2023-06-04T19:14:54;0.30;;;0.30;;
19645;SDS011;9971;52.446;13.452;2023-06-04T19:19:57;0.15;;;0.15;;
19645;SDS011;9971;52.446;13.452;2023-06-04T19:24:59;0.30;;;0.30;;
19645;SDS011;9971;52.446;13.452;2023-06-04T19:30:01;0.30;;;0.30;;
19645;SDS011;9971;52.446;13.452;2023-06-04T19:35:04;0.30;;;0.30;;
19645;SDS011;9971;52.446;13.452;2023-06-04T19:40:07;0.25;;;0.25;;
19645;SDS011;9971;52.446;13.452;2023-06-04T19:45:10;0.23;;;0.23;;
19645;SDS011;9971;52.446;13.452;2023-06-04T19:50:12;0.30;;;0.30;;
19645;SDS011;9971;52.446;13.452;2023-06-04T19:55:15;0.20;;;0.20;;
19645;SDS011;9971;52.446;13.452;2023-06-04T20:00:18;0.10;;;0.10;;
19645;SDS011;9971;52.446;13.452;2023-06-04T20:05:21;0.30;;;0.30;;
19645;SDS011;9971;52.446;13.452;2023-06-04T20:10:25;0.10;;;0.10;;
19645;SDS011;9971;52.446;13.452;2023-06-04T20:15:27;0.20;;;0.20;;
19645;SDS011;9971;52.446;13.452;2023-06-04T20:20:31;0.20;;;0.20;;
19645;SDS011;9971;52.446;13.452;2023-06-04T20:25:33;0.20;;;0.20;;
19645;SDS011;9971;52.446;13.452;2023-06-04T20:30:36;0.20;;;0.20;;
19645;SDS011;9971;52.446;13.452;2023-06-04T20:35:38;0.15;;;0.15;;
19645;SDS011;9971;52.446;13.452;2023-06-04T20:40:41;0.30;;;0.30;;
19645;SDS011;9971;52.446;13.452;2023-06-04T20:45:43;0.20;;;0.20;;
19645;SDS011;9971;52.446;13.452;2023-06-04T20:50:46;0.10;;;0.10;;
19645;SDS011;9971;52.446;13.452;2023-06-04T20:55:48;0.25;;;0.25;;
19645;SDS011;9971;52.446;13.452;2023-06-04T21:00:51;0.17;;;0.17;;
19645;SDS011;9971;52.446;13.452;2023-06-04T21:05:53;0.10;;;0.10;;
19645;SDS011;9971;52.446;13.452;2023-06-04T21:10:55;0.23;;;0.23;;
19645;SDS011;9971;52.446;13.452;2023-06-04T21:15:58;0.10;;;0.10;;
19645;SDS011;9971;52.446;13.452;2023-06-04T21:21:00;0.30;;;0.30;;
19645;SDS011;9971;52.446;13.452;2023-06-04T21:26:02;0.20;;;0.20;;
19645;SDS011;9971;52.446;13.452;2023-06-04T21:31:05;0.13;;;0.13;;
19645;SDS011;9971;52.446;13.452;2023-06-04T21:36:07;0.10;;;0.10;;
19645;SDS011;9971;52.446;13.452;2023-06-04T21:41:10;0.10;;;0.10;;
19645;SDS011;9971;52.446;13.452;2023-06-04T21:46:13;0.20;;;0.20;;
19645;SDS011;9971;52.446;13.452;2023-06-04T21:51:16;0.00;;;0.00;;
19645;SDS011;9971;52.446;13.452;2023-06-04T21:56:19;0.00;;;0.00;;
19645;SDS011;9971;52.446;13.452;2023-06-04T22:01:21;0.15;;;0.15;;
19645;SDS011;9971;52.446;13.452;2023-06-04T22:06:23;0.10;;;0.10;;
19645;SDS011;9971;52.446;13.452;2023-06-04T22:11:27;0.00;;;0.00;;
19645;SDS011;9971;52.446;13.452;2023-06-04T22:16:30;0.20;;;0.20;;
19645;SDS011;9971;52.446;13.452;2023-06-04T22:21:33;0.20;;;0.20;;
19645;SDS011;9971;52.446;13.452;2023-06-04T22:26:35;0.10;;;0.10;;
19645;SDS011;9971;52.446;13.452;2023-06-04T22:31:38;0.10;;;0.10;;
19645;SDS011;9971;52.446;13.452;2023-06-04T22:36:40;0.10;;;0.10;;
19645;SDS011;9971;52.446;13.452;2023-06-04T22:41:42;0.05;;;0.05;;
19645;SDS011;9971;52.446;13.452;2023-06-04T22:46:45;0.10;;;0.10;;
19645;SDS011;9971;52.446;13.452;2023-06-04T22:51:47;0.20;;;0.20;;
19645;SDS011;9971;52.446;13.452;2023-06-04T22:56:50;0.10;;;0.10;;
19645;SDS011;9971;52.446;13.452;2023-06-04T23:01:53;0.10;;;0.10;;
19645;SDS011;9971;52.446;13.452;2023-06-04T23:06:55;0.10;;;0.10;;
19645;SDS011;9971;52.446;13.452;2023-06-04T23:11:57;0.15;;;0.15;;
19645;SDS011;9971;52.446;13.452;2023-06-04T23:16:59;0.10;;;0.10;;
19645;SDS011;9971;52.446;13.452;2023-06-04T23:22:01;0.03;;;0.03;;
19645;SDS011;9971;52.446;13.452;2023-06-04T23:27:04;0.13;;;0.13;;
19645;SDS011;9971;52.446;13.452;2023-06-04T23:32:07;0.10;;;0.10;;
19645;SDS011;9971;52.446;13.452;2023-06-04T23:37:09;0.10;;;0.10;;
19645;SDS011;9971;52.446;13.452;2023-06-04T23:42:11;0.15;;;0.15;;
19645;SDS011;9971;52.446;13.452;2023-06-04T23:47:14;0.33;;;0.00;;
19645;SDS011;9971;52.446;13.452;2023-06-04T23:52:16;0.08;;;0.08;;
19645;SDS011;9971;52.446;13.452;2023-06-04T23:57:19;0.17;;;0.17;;
